Arleta, California
Current Conditions -  °F | °C
As of 5:53 PM on Saturday 22 Nov 2014 (Local Time) from KBUR Reporting Station
Clear Clear  
Wind Chill: 18°   Ceiling: Unl
Heat Index: 18°   Visibility: 10mi
Dew Point:   Wind: 6mph
Humidity: 52%   Direction: 140°SE
Pressure: 30"   Gusts: NA
Location:  34.2574°N, 118.255°W
Report Text: KBUR 230153Z 14005KT 10SM CLR 18/08 A3000 RMK AO2 SLP152 T01780078
Loading
Personal Weather Stations






























Interactive Weather Map New forecast layout! Learn more

10-Day Weather Forecast

Advertisements
Track Severe Weather on mobile